sensor_id;sensor_type;location;lat;lon;timestamp;temperature;humidity
23783;DHT22;12071;50.850;4.446;2023-05-29T00:01:29;15.90;99.90
23783;DHT22;12071;50.850;4.446;2023-05-29T00:03:56;15.90;99.90
23783;DHT22;12071;50.850;4.446;2023-05-29T00:06:22;15.70;99.90
23783;DHT22;12071;50.850;4.446;2023-05-29T00:08:49;15.70;99.90
23783;DHT22;12071;50.850;4.446;2023-05-29T00:11:14;15.50;99.90
23783;DHT22;12071;50.850;4.446;2023-05-29T00:13:40;15.60;99.90
23783;DHT22;12071;50.850;4.446;2023-05-29T00:16:06;15.70;99.90
23783;DHT22;12071;50.850;4.446;2023-05-29T00:18:33;15.80;99.90
23783;DHT22;12071;50.850;4.446;2023-05-29T00:20:58;15.60;99.90
23783;DHT22;12071;50.850;4.446;2023-05-29T00:23:24;15.70;99.90
23783;DHT22;12071;50.850;4.446;2023-05-29T00:25:49;15.60;99.90
23783;DHT22;12071;50.850;4.446;2023-05-29T00:28:15;15.40;99.90
23783;DHT22;12071;50.850;4.446;2023-05-29T00:30:41;15.50;99.90
23783;DHT22;12071;50.850;4.446;2023-05-29T00:33:06;15.50;99.90
23783;DHT22;12071;50.850;4.446;2023-05-29T00:35:33;15.50;99.90
23783;DHT22;12071;50.850;4.446;2023-05-29T00:37:59;15.50;99.90
23783;DHT22;12071;50.850;4.446;2023-05-29T00:40:25;15.20;1.00
23783;DHT22;12071;50.850;4.446;2023-05-29T00:42:50;15.10;1.00
23783;DHT22;12071;50.850;4.446;2023-05-29T00:45:16;15.10;1.00
23783;DHT22;12071;50.850;4.446;2023-05-29T00:47:42;15.10;1.00
23783;DHT22;12071;50.850;4.446;2023-05-29T00:50:11;15.20;1.00
23783;DHT22;12071;50.850;4.446;2023-05-29T00:52:40;15.10;1.00
23783;DHT22;12071;50.850;4.446;2023-05-29T00:55:07;14.90;1.00
23783;DHT22;12071;50.850;4.446;2023-05-29T00:57:34;14.90;1.00
23783;DHT22;12071;50.850;4.446;2023-05-29T01:00:00;14.80;1.00
23783;DHT22;12071;50.850;4.446;2023-05-29T01:02:29;14.80;1.00
23783;DHT22;12071;50.850;4.446;2023-05-29T01:04:56;14.70;1.00
23783;DHT22;12071;50.850;4.446;2023-05-29T01:07:22;14.80;1.00
23783;DHT22;12071;50.850;4.446;2023-05-29T01:09:48;14.50;7.00
23783;DHT22;12071;50.850;4.446;2023-05-29T01:12:23;14.60;41.30
23783;DHT22;12071;50.850;4.446;2023-05-29T01:17:34;14.70;2.90
23783;DHT22;12071;50.850;4.446;2023-05-29T01:28:26;14.20;99.90
23783;DHT22;12071;50.850;4.446;2023-05-29T01:30:54;14.40;99.90
23783;DHT22;12071;50.850;4.446;2023-05-29T01:33:22;14.20;99.90
23783;DHT22;12071;50.850;4.446;2023-05-29T01:35:48;14.00;99.90
23783;DHT22;12071;50.850;4.446;2023-05-29T01:38:13;14.10;99.90
23783;DHT22;12071;50.850;4.446;2023-05-29T01:40:39;14.10;99.90
23783;DHT22;12071;50.850;4.446;2023-05-29T01:43:05;14.10;99.90
23783;DHT22;12071;50.850;4.446;2023-05-29T01:45:31;14.20;99.90
23783;DHT22;12071;50.850;4.446;2023-05-29T01:47:57;14.10;99.90
23783;DHT22;12071;50.850;4.446;2023-05-29T01:50:23;14.20;99.90
23783;DHT22;12071;50.850;4.446;2023-05-29T01:52:50;14.30;99.90
23783;DHT22;12071;50.850;4.446;2023-05-29T01:55:16;14.10;99.90
23783;DHT22;12071;50.850;4.446;2023-05-29T01:57:41;14.20;99.90
23783;DHT22;12071;50.850;4.446;2023-05-29T02:00:08;14.10;99.90
23783;DHT22;12071;50.850;4.446;2023-05-29T02:02:40;14.10;99.90
23783;DHT22;12071;50.850;4.446;2023-05-29T02:05:07;14.10;99.90
23783;DHT22;12071;50.850;4.446;2023-05-29T02:07:34;14.00;99.90
23783;DHT22;12071;50.850;4.446;2023-05-29T02:10:00;13.80;99.90
23783;DHT22;12071;50.850;4.446;2023-05-29T02:12:25;13.90;99.90
23783;DHT22;12071;50.850;4.446;2023-05-29T02:14:51;13.80;99.90
23783;DHT22;12071;50.850;4.446;2023-05-29T02:17:17;13.70;99.90
23783;DHT22;12071;50.850;4.446;2023-05-29T02:19:44;13.80;99.90
23783;DHT22;12071;50.850;4.446;2023-05-29T02:22:10;13.80;99.90
23783;DHT22;12071;50.850;4.446;2023-05-29T02:24:35;13.70;99.90
23783;DHT22;12071;50.850;4.446;2023-05-29T02:27:01;13.80;99.90
23783;DHT22;12071;50.850;4.446;2023-05-29T02:29:28;13.90;99.90
23783;DHT22;12071;50.850;4.446;2023-05-29T02:31:54;14.00;99.90
23783;DHT22;12071;50.850;4.446;2023-05-29T02:34:19;13.90;99.90
23783;DHT22;12071;50.850;4.446;2023-05-29T02:36:48;13.70;99.90
23783;DHT22;12071;50.850;4.446;2023-05-29T02:39:14;13.80;99.90
23783;DHT22;12071;50.850;4.446;2023-05-29T02:41:39;13.70;99.90
23783;DHT22;12071;50.850;4.446;2023-05-29T02:44:05;13.60;99.90
23783;DHT22;12071;50.850;4.446;2023-05-29T02:46:31;13.50;99.90
23783;DHT22;12071;50.850;4.446;2023-05-29T02:48:56;13.50;99.90
23783;DHT22;12071;50.850;4.446;2023-05-29T02:51:22;13.40;99.90
23783;DHT22;12071;50.850;4.446;2023-05-29T02:53:47;13.40;99.90
23783;DHT22;12071;50.850;4.446;2023-05-29T02:56:14;13.50;99.90
23783;DHT22;12071;50.850;4.446;2023-05-29T02:58:41;13.40;99.90
23783;DHT22;12071;50.850;4.446;2023-05-29T03:01:07;13.20;99.90
23783;DHT22;12071;50.850;4.446;2023-05-29T03:03:33;13.00;99.90
23783;DHT22;12071;50.850;4.446;2023-05-29T03:05:58;13.10;99.90
23783;DHT22;12071;50.850;4.446;2023-05-29T03:08:26;13.20;99.90
23783;DHT22;12071;50.850;4.446;2023-05-29T03:10:53;13.10;99.90
23783;DHT22;12071;50.850;4.446;2023-05-29T03:13:19;13.10;99.90
23783;DHT22;12071;50.850;4.446;2023-05-29T03:15:45;13.10;99.90
23783;DHT22;12071;50.850;4.446;2023-05-29T03:18:11;13.00;99.90
23783;DHT22;12071;50.850;4.446;2023-05-29T03:20:36;12.80;99.90
23783;DHT22;12071;50.850;4.446;2023-05-29T03:23:02;12.60;99.90
23783;DHT22;12071;50.850;4.446;2023-05-29T03:25:29;12.60;99.90
23783;DHT22;12071;50.850;4.446;2023-05-29T03:27:55;12.70;99.90
23783;DHT22;12071;50.850;4.446;2023-05-29T03:30:21;12.50;99.90
23783;DHT22;12071;50.850;4.446;2023-05-29T03:32:46;12.50;99.90
23783;DHT22;12071;50.850;4.446;2023-05-29T03:35:12;12.60;99.90
23783;DHT22;12071;50.850;4.446;2023-05-29T03:37:37;12.60;87.10
23783;DHT22;12071;50.850;4.446;2023-05-29T03:40:03;12.50;71.10
23783;DHT22;12071;50.850;4.446;2023-05-29T03:42:30;12.50;17.60
23783;DHT22;12071;50.850;4.446;2023-05-29T03:44:56;12.50;47.20
23783;DHT22;12071;50.850;4.446;2023-05-29T03:47:22;12.60;4.20
23783;DHT22;12071;50.850;4.446;2023-05-29T03:49:48;12.40;19.00
23783;DHT22;12071;50.850;4.446;2023-05-29T03:52:13;12.20;50.20
23783;DHT22;12071;50.850;4.446;2023-05-29T03:54:39;12.30;14.50
23783;DHT22;12071;50.850;4.446;2023-05-29T03:57:05;12.40;1.00
23783;DHT22;12071;50.850;4.446;2023-05-29T03:59:32;12.40;1.00
23783;DHT22;12071;50.850;4.446;2023-05-29T04:01:58;12.30;1.00
23783;DHT22;12071;50.850;4.446;2023-05-29T04:04:23;12.30;1.00
23783;DHT22;12071;50.850;4.446;2023-05-29T04:06:49;12.30;1.00
23783;DHT22;12071;50.850;4.446;2023-05-29T04:09:15;12.30;1.00
23783;DHT22;12071;50.850;4.446;2023-05-29T04:11:40;12.30;1.00
23783;DHT22;12071;50.850;4.446;2023-05-29T04:14:07;12.30;1.00
23783;DHT22;12071;50.850;4.446;2023-05-29T04:16:32;12.20;1.00
23783;DHT22;12071;50.850;4.446;2023-05-29T04:18:58;12.30;1.00
23783;DHT22;12071;50.850;4.446;2023-05-29T04:21:24;12.20;1.00
23783;DHT22;12071;50.850;4.446;2023-05-29T04:23:49;12.10;1.00
23783;DHT22;12071;50.850;4.446;2023-05-29T04:26:15;12.10;1.00
23783;DHT22;12071;50.850;4.446;2023-05-29T04:28:40;12.10;1.00
23783;DHT22;12071;50.850;4.446;2023-05-29T04:31:08;12.10;1.00
23783;DHT22;12071;50.850;4.446;2023-05-29T04:33:33;12.30;1.00
23783;DHT22;12071;50.850;4.446;2023-05-29T04:36:02;12.10;1.00
23783;DHT22;12071;50.850;4.446;2023-05-29T04:38:29;12.10;1.00
23783;DHT22;12071;50.850;4.446;2023-05-29T04:40:55;12.10;1.00
23783;DHT22;12071;50.850;4.446;2023-05-29T04:43:24;12.00;1.00
23783;DHT22;12071;50.850;4.446;2023-05-29T04:45:52;12.00;1.00
23783;DHT22;12071;50.850;4.446;2023-05-29T04:48:18;12.00;1.00
23783;DHT22;12071;50.850;4.446;2023-05-29T04:50:43;12.00;1.00
23783;DHT22;12071;50.850;4.446;2023-05-29T04:53:10;12.00;1.00
23783;DHT22;12071;50.850;4.446;2023-05-29T04:55:36;11.80;1.00
23783;DHT22;12071;50.850;4.446;2023-05-29T04:58:01;12.00;1.00
23783;DHT22;12071;50.850;4.446;2023-05-29T05:00:27;11.80;1.00
23783;DHT22;12071;50.850;4.446;2023-05-29T05:02:53;11.90;1.00
23783;DHT22;12071;50.850;4.446;2023-05-29T05:05:18;12.00;1.00
23783;DHT22;12071;50.850;4.446;2023-05-29T05:07:44;12.00;1.00
23783;DHT22;12071;50.850;4.446;2023-05-29T05:10:10;12.10;1.00
23783;DHT22;12071;50.850;4.446;2023-05-29T05:12:35;12.20;1.00
23783;DHT22;12071;50.850;4.446;2023-05-29T05:15:02;12.30;99.90
23783;DHT22;12071;50.850;4.446;2023-05-29T05:17:27;12.20;99.90
23783;DHT22;12071;50.850;4.446;2023-05-29T05:19:53;12.20;99.90
23783;DHT22;12071;50.850;4.446;2023-05-29T05:22:19;12.30;99.90
23783;DHT22;12071;50.850;4.446;2023-05-29T05:24:45;12.40;99.90
23783;DHT22;12071;50.850;4.446;2023-05-29T05:27:11;12.30;99.90
23783;DHT22;12071;50.850;4.446;2023-05-29T05:29:36;12.30;99.90
23783;DHT22;12071;50.850;4.446;2023-05-29T05:32:02;12.40;99.90
23783;DHT22;12071;50.850;4.446;2023-05-29T05:34:27;12.40;99.90
23783;DHT22;12071;50.850;4.446;2023-05-29T05:36:53;12.70;99.90
23783;DHT22;12071;50.850;4.446;2023-05-29T05:39:18;12.70;99.90
23783;DHT22;12071;50.850;4.446;2023-05-29T05:41:44;12.50;99.90
23783;DHT22;12071;50.850;4.446;2023-05-29T05:44:10;12.60;99.90
23783;DHT22;12071;50.850;4.446;2023-05-29T05:46:35;12.80;99.90
23783;DHT22;12071;50.850;4.446;2023-05-29T05:49:01;12.90;99.90
23783;DHT22;12071;50.850;4.446;2023-05-29T05:51:27;12.80;99.90
23783;DHT22;12071;50.850;4.446;2023-05-29T05:53:53;12.90;99.90
23783;DHT22;12071;50.850;4.446;2023-05-29T05:56:18;13.10;99.90
23783;DHT22;12071;50.850;4.446;2023-05-29T05:58:44;13.00;99.90
23783;DHT22;12071;50.850;4.446;2023-05-29T06:01:10;12.90;99.90
23783;DHT22;12071;50.850;4.446;2023-05-29T06:03:36;12.80;99.90
23783;DHT22;12071;50.850;4.446;2023-05-29T06:06:03;12.80;99.90
23783;DHT22;12071;50.850;4.446;2023-05-29T06:08:29;12.90;99.90
23783;DHT22;12071;50.850;4.446;2023-05-29T06:10:56;12.70;99.90
23783;DHT22;12071;50.850;4.446;2023-05-29T06:13:21;12.80;99.90
23783;DHT22;12071;50.850;4.446;2023-05-29T06:15:47;12.90;99.90
23783;DHT22;12071;50.850;4.446;2023-05-29T06:18:12;12.90;99.90
23783;DHT22;12071;50.850;4.446;2023-05-29T06:20:38;12.90;99.90
23783;DHT22;12071;50.850;4.446;2023-05-29T06:23:03;13.10;99.90
23783;DHT22;12071;50.850;4.446;2023-05-29T06:25:30;13.20;99.90
23783;DHT22;12071;50.850;4.446;2023-05-29T06:28:02;13.30;99.90
23783;DHT22;12071;50.850;4.446;2023-05-29T06:30:28;13.10;99.90
23783;DHT22;12071;50.850;4.446;2023-05-29T06:32:54;13.00;99.90
23783;DHT22;12071;50.850;4.446;2023-05-29T06:35:20;13.30;99.90
23783;DHT22;12071;50.850;4.446;2023-05-29T06:37:46;13.40;99.90
23783;DHT22;12071;50.850;4.446;2023-05-29T06:40:13;13.50;1.00
23783;DHT22;12071;50.850;4.446;2023-05-29T06:42:38;13.50;1.00
23783;DHT22;12071;50.850;4.446;2023-05-29T06:45:04;13.50;1.00
23783;DHT22;12071;50.850;4.446;2023-05-29T06:47:30;13.60;1.00
23783;DHT22;12071;50.850;4.446;2023-05-29T06:49:55;13.70;99.90
23783;DHT22;12071;50.850;4.446;2023-05-29T06:52:21;13.70;99.90
23783;DHT22;12071;50.850;4.446;2023-05-29T06:54:47;13.80;99.90
23783;DHT22;12071;50.850;4.446;2023-05-29T06:57:12;13.70;99.90
23783;DHT22;12071;50.850;4.446;2023-05-29T06:59:38;13.90;99.90
23783;DHT22;12071;50.850;4.446;2023-05-29T07:02:04;13.70;99.90
23783;DHT22;12071;50.850;4.446;2023-05-29T07:04:30;13.80;99.90
23783;DHT22;12071;50.850;4.446;2023-05-29T07:06:56;13.90;99.90
23783;DHT22;12071;50.850;4.446;2023-05-29T07:09:21;13.90;99.90
23783;DHT22;12071;50.850;4.446;2023-05-29T07:11:47;13.90;99.90
23783;DHT22;12071;50.850;4.446;2023-05-29T07:14:13;13.90;6.00
23783;DHT22;12071;50.850;4.446;2023-05-29T07:16:39;13.80;99.90
23783;DHT22;12071;50.850;4.446;2023-05-29T07:19:05;13.80;99.90
23783;DHT22;12071;50.850;4.446;2023-05-29T07:21:30;13.90;99.90
23783;DHT22;12071;50.850;4.446;2023-05-29T07:23:56;14.20;99.90
23783;DHT22;12071;50.850;4.446;2023-05-29T07:26:22;14.40;1.00
23783;DHT22;12071;50.850;4.446;2023-05-29T07:28:48;14.40;1.00
23783;DHT22;12071;50.850;4.446;2023-05-29T07:31:14;14.40;1.00
23783;DHT22;12071;50.850;4.446;2023-05-29T07:33:40;14.50;99.90
23783;DHT22;12071;50.850;4.446;2023-05-29T07:36:07;14.60;55.40
23783;DHT22;12071;50.850;4.446;2023-05-29T07:38:33;14.60;1.00
23783;DHT22;12071;50.850;4.446;2023-05-29T07:40:58;14.70;1.00
23783;DHT22;12071;50.850;4.446;2023-05-29T07:43:24;14.80;1.00
23783;DHT22;12071;50.850;4.446;2023-05-29T07:45:50;14.90;1.00
23783;DHT22;12071;50.850;4.446;2023-05-29T07:48:15;14.90;1.00
23783;DHT22;12071;50.850;4.446;2023-05-29T07:50:41;15.00;1.00
23783;DHT22;12071;50.850;4.446;2023-05-29T07:53:06;15.20;99.90
23783;DHT22;12071;50.850;4.446;2023-05-29T07:55:33;15.20;1.00
23783;DHT22;12071;50.850;4.446;2023-05-29T07:57:59;15.00;1.00
23783;DHT22;12071;50.850;4.446;2023-05-29T08:00:25;15.10;1.00
23783;DHT22;12071;50.850;4.446;2023-05-29T08:02:51;15.20;1.00
23783;DHT22;12071;50.850;4.446;2023-05-29T08:05:17;15.10;1.00
23783;DHT22;12071;50.850;4.446;2023-05-29T08:07:43;15.30;1.00
23783;DHT22;12071;50.850;4.446;2023-05-29T08:10:09;15.30;1.00
23783;DHT22;12071;50.850;4.446;2023-05-29T08:12:35;15.50;99.90
23783;DHT22;12071;50.850;4.446;2023-05-29T08:15:02;15.60;99.90
23783;DHT22;12071;50.850;4.446;2023-05-29T08:17:27;15.70;99.90
23783;DHT22;12071;50.850;4.446;2023-05-29T08:19:53;15.80;99.90
23783;DHT22;12071;50.850;4.446;2023-05-29T08:22:19;16.10;1.00
23783;DHT22;12071;50.850;4.446;2023-05-29T08:24:45;16.10;99.90
23783;DHT22;12071;50.850;4.446;2023-05-29T08:27:10;16.00;99.90
23783;DHT22;12071;50.850;4.446;2023-05-29T08:29:36;16.20;99.90
23783;DHT22;12071;50.850;4.446;2023-05-29T08:32:02;16.10;99.90
23783;DHT22;12071;50.850;4.446;2023-05-29T08:34:27;16.00;1.00
23783;DHT22;12071;50.850;4.446;2023-05-29T08:36:53;16.10;99.90
23783;DHT22;12071;50.850;4.446;2023-05-29T08:39:20;16.20;2.40
23783;DHT22;12071;50.850;4.446;2023-05-29T08:42:07;16.30;1.00
23783;DHT22;12071;50.850;4.446;2023-05-29T08:44:35;16.20;1.00
23783;DHT22;12071;50.850;4.446;2023-05-29T08:47:03;16.30;1.00
23783;DHT22;12071;50.850;4.446;2023-05-29T08:49:34;16.50;1.00
23783;DHT22;12071;50.850;4.446;2023-05-29T08:52:07;16.70;99.90
23783;DHT22;12071;50.850;4.446;2023-05-29T08:54:34;16.90;1.00
23783;DHT22;12071;50.850;4.446;2023-05-29T08:57:00;16.80;1.00
23783;DHT22;12071;50.850;4.446;2023-05-29T08:59:27;16.80;99.90
23783;DHT22;12071;50.850;4.446;2023-05-29T09:01:55;16.80;99.90
23783;DHT22;12071;50.850;4.446;2023-05-29T09:04:20;16.80;99.90
23783;DHT22;12071;50.850;4.446;2023-05-29T09:06:46;16.70;99.90
23783;DHT22;12071;50.850;4.446;2023-05-29T09:09:12;16.70;99.90
23783;DHT22;12071;50.850;4.446;2023-05-29T09:11:38;16.80;99.90
23783;DHT22;12071;50.850;4.446;2023-05-29T09:14:03;16.90;99.90
23783;DHT22;12071;50.850;4.446;2023-05-29T09:16:29;17.00;99.90
23783;DHT22;12071;50.850;4.446;2023-05-29T09:19:05;17.20;99.90
23783;DHT22;12071;50.850;4.446;2023-05-29T09:21:32;17.30;99.90
23783;DHT22;12071;50.850;4.446;2023-05-29T09:24:05;17.40;99.90
23783;DHT22;12071;50.850;4.446;2023-05-29T09:26:31;17.50;99.90
23783;DHT22;12071;50.850;4.446;2023-05-29T09:28:57;17.30;1.00
23783;DHT22;12071;50.850;4.446;2023-05-29T09:31:23;17.30;1.00
23783;DHT22;12071;50.850;4.446;2023-05-29T09:33:50;17.30;1.00
23783;DHT22;12071;50.850;4.446;2023-05-29T09:36:24;17.40;1.00
23783;DHT22;12071;50.850;4.446;2023-05-29T09:38:51;17.50;1.00
23783;DHT22;12071;50.850;4.446;2023-05-29T09:41:26;17.30;99.90
23783;DHT22;12071;50.850;4.446;2023-05-29T09:43:51;17.40;1.00
23783;DHT22;12071;50.850;4.446;2023-05-29T09:46:19;17.60;1.00
23783;DHT22;12071;50.850;4.446;2023-05-29T09:48:45;17.70;1.00
23783;DHT22;12071;50.850;4.446;2023-05-29T09:51:21;17.80;1.00
23783;DHT22;12071;50.850;4.446;2023-05-29T09:53:48;17.90;99.90
23783;DHT22;12071;50.850;4.446;2023-05-29T09:56:16;18.00;99.90
23783;DHT22;12071;50.850;4.446;2023-05-29T09:58:43;17.90;99.90
23783;DHT22;12071;50.850;4.446;2023-05-29T10:01:12;17.90;99.90
23783;DHT22;12071;50.850;4.446;2023-05-29T10:03:38;18.10;99.90
23783;DHT22;12071;50.850;4.446;2023-05-29T10:06:04;18.40;99.90
23783;DHT22;12071;50.850;4.446;2023-05-29T10:08:32;18.40;99.90
23783;DHT22;12071;50.850;4.446;2023-05-29T10:11:02;18.40;99.90
23783;DHT22;12071;50.850;4.446;2023-05-29T10:13:33;18.50;69.00
23783;DHT22;12071;50.850;4.446;2023-05-29T10:16:01;18.70;99.90
23783;DHT22;12071;50.850;4.446;2023-05-29T10:18:39;18.80;99.90
23783;DHT22;12071;50.850;4.446;2023-05-29T10:21:11;18.80;1.00
23783;DHT22;12071;50.850;4.446;2023-05-29T10:23:38;18.80;1.00
23783;DHT22;12071;50.850;4.446;2023-05-29T10:26:14;19.00;99.90
23783;DHT22;12071;50.850;4.446;2023-05-29T10:28:46;19.10;99.90
23783;DHT22;12071;50.850;4.446;2023-05-29T10:40:25;19.00;96.30
23783;DHT22;12071;50.850;4.446;2023-05-29T10:42:52;19.20;99.90
23783;DHT22;12071;50.850;4.446;2023-05-29T10:50:39;19.00;39.80
23783;DHT22;12071;50.850;4.446;2023-05-29T10:53:09;18.80;1.00
23783;DHT22;12071;50.850;4.446;2023-05-29T10:55:40;18.80;1.00
23783;DHT22;12071;50.850;4.446;2023-05-29T10:58:13;19.00;26.50
23783;DHT22;12071;50.850;4.446;2023-05-29T11:00:42;19.50;1.00
23783;DHT22;12071;50.850;4.446;2023-05-29T11:03:08;19.80;1.00
23783;DHT22;12071;50.850;4.446;2023-05-29T11:05:34;20.20;1.00
23783;DHT22;12071;50.850;4.446;2023-05-29T11:08:01;19.90;1.00
23783;DHT22;12071;50.850;4.446;2023-05-29T11:13:08;19.80;1.00
23783;DHT22;12071;50.850;4.446;2023-05-29T11:15:33;19.80;1.00
23783;DHT22;12071;50.850;4.446;2023-05-29T11:18:06;19.80;1.00
23783;DHT22;12071;50.850;4.446;2023-05-29T11:20:37;19.90;99.90
23783;DHT22;12071;50.850;4.446;2023-05-29T11:23:07;20.10;1.00
23783;DHT22;12071;50.850;4.446;2023-05-29T11:25:37;20.20;1.00
23783;DHT22;12071;50.850;4.446;2023-05-29T11:28:08;20.40;99.90
23783;DHT22;12071;50.850;4.446;2023-05-29T11:30:44;20.70;99.90
23783;DHT22;12071;50.850;4.446;2023-05-29T11:33:23;20.70;99.90
23783;DHT22;12071;50.850;4.446;2023-05-29T11:35:56;20.80;99.90
23783;DHT22;12071;50.850;4.446;2023-05-29T11:38:23;20.70;99.90
23783;DHT22;12071;50.850;4.446;2023-05-29T11:40:50;20.90;99.90
23783;DHT22;12071;50.850;4.446;2023-05-29T11:43:16;20.70;99.90
23783;DHT22;12071;50.850;4.446;2023-05-29T11:45:41;20.50;99.90
23783;DHT22;12071;50.850;4.446;2023-05-29T11:48:07;20.60;99.90
23783;DHT22;12071;50.850;4.446;2023-05-29T11:50:33;21.10;99.90
23783;DHT22;12071;50.850;4.446;2023-05-29T11:53:02;21.00;99.90
23783;DHT22;12071;50.850;4.446;2023-05-29T11:55:27;20.90;99.90
23783;DHT22;12071;50.850;4.446;2023-05-29T11:58:01;21.00;99.90
23783;DHT22;12071;50.850;4.446;2023-05-29T12:00:36;21.00;99.90
23783;DHT22;12071;50.850;4.446;2023-05-29T12:03:04;21.10;99.90
23783;DHT22;12071;50.850;4.446;2023-05-29T12:05:47;21.20;99.90
23783;DHT22;12071;50.850;4.446;2023-05-29T12:08:24;21.00;99.90
23783;DHT22;12071;50.850;4.446;2023-05-29T12:10:52;20.70;99.90
23783;DHT22;12071;50.850;4.446;2023-05-29T12:13:21;21.10;99.90
23783;DHT22;12071;50.850;4.446;2023-05-29T12:15:49;21.40;99.90
23783;DHT22;12071;50.850;4.446;2023-05-29T12:18:17;21.50;99.90
23783;DHT22;12071;50.850;4.446;2023-05-29T12:20:43;21.40;99.90
23783;DHT22;12071;50.850;4.446;2023-05-29T12:23:08;21.80;99.90
23783;DHT22;12071;50.850;4.446;2023-05-29T12:25:34;21.90;99.90
23783;DHT22;12071;50.850;4.446;2023-05-29T12:28:02;21.90;99.90
23783;DHT22;12071;50.850;4.446;2023-05-29T12:30:28;21.80;99.90
23783;DHT22;12071;50.850;4.446;2023-05-29T12:32:53;21.90;99.90
23783;DHT22;12071;50.850;4.446;2023-05-29T12:38:06;22.10;99.90
23783;DHT22;12071;50.850;4.446;2023-05-29T12:40:34;22.20;99.90
23783;DHT22;12071;50.850;4.446;2023-05-29T12:43:04;22.20;99.90
23783;DHT22;12071;50.850;4.446;2023-05-29T12:45:32;22.70;99.90
23783;DHT22;12071;50.850;4.446;2023-05-29T12:48:05;22.60;99.90
23783;DHT22;12071;50.850;4.446;2023-05-29T12:50:35;22.70;99.90
23783;DHT22;12071;50.850;4.446;2023-05-29T12:53:10;22.80;99.90
23783;DHT22;12071;50.850;4.446;2023-05-29T12:55:38;22.60;99.90
23783;DHT22;12071;50.850;4.446;2023-05-29T12:58:09;23.10;99.90
23783;DHT22;12071;50.850;4.446;2023-05-29T13:00:35;23.00;99.90
23783;DHT22;12071;50.850;4.446;2023-05-29T13:03:02;23.00;99.90
23783;DHT22;12071;50.850;4.446;2023-05-29T13:05:28;23.10;99.90
23783;DHT22;12071;50.850;4.446;2023-05-29T13:07:54;23.60;99.90
23783;DHT22;12071;50.850;4.446;2023-05-29T13:10:20;23.70;99.90
23783;DHT22;12071;50.850;4.446;2023-05-29T13:12:47;23.90;99.90
23783;DHT22;12071;50.850;4.446;2023-05-29T13:15:13;23.90;93.90
23783;DHT22;12071;50.850;4.446;2023-05-29T13:17:40;24.10;89.40
23783;DHT22;12071;50.850;4.446;2023-05-29T13:20:10;24.90;71.30
23783;DHT22;12071;50.850;4.446;2023-05-29T13:22:38;24.70;30.90
23783;DHT22;12071;50.850;4.446;2023-05-29T13:25:04;24.90;1.50
23783;DHT22;12071;50.850;4.446;2023-05-29T13:27:32;25.50;1.00
23783;DHT22;12071;50.850;4.446;2023-05-29T13:29:57;26.20;1.00
23783;DHT22;12071;50.850;4.446;2023-05-29T13:32:23;26.70;1.00
23783;DHT22;12071;50.850;4.446;2023-05-29T13:34:48;27.00;1.00
23783;DHT22;12071;50.850;4.446;2023-05-29T13:37:14;27.30;1.00
23783;DHT22;12071;50.850;4.446;2023-05-29T13:39:40;27.80;1.00
23783;DHT22;12071;50.850;4.446;2023-05-29T13:42:07;27.10;1.00
23783;DHT22;12071;50.850;4.446;2023-05-29T13:44:33;26.60;1.00
23783;DHT22;12071;50.850;4.446;2023-05-29T13:46:58;26.70;1.00
23783;DHT22;12071;50.850;4.446;2023-05-29T13:49:26;26.60;1.00
23783;DHT22;12071;50.850;4.446;2023-05-29T13:51:52;27.00;1.00
23783;DHT22;12071;50.850;4.446;2023-05-29T13:54:17;27.40;1.00
23783;DHT22;12071;50.850;4.446;2023-05-29T13:56:43;27.80;1.00
23783;DHT22;12071;50.850;4.446;2023-05-29T13:59:09;28.10;1.00
23783;DHT22;12071;50.850;4.446;2023-05-29T14:01:35;29.10;1.00
23783;DHT22;12071;50.850;4.446;2023-05-29T14:04:01;29.80;1.00
23783;DHT22;12071;50.850;4.446;2023-05-29T14:06:27;30.00;1.00
23783;DHT22;12071;50.850;4.446;2023-05-29T14:08:53;29.10;99.90
23783;DHT22;12071;50.850;4.446;2023-05-29T14:11:18;29.40;99.90
23783;DHT22;12071;50.850;4.446;2023-05-29T14:13:44;29.40;99.90
23783;DHT22;12071;50.850;4.446;2023-05-29T14:16:10;29.30;99.90
23783;DHT22;12071;50.850;4.446;2023-05-29T14:18:36;29.00;99.90
23783;DHT22;12071;50.850;4.446;2023-05-29T14:21:01;29.30;99.90
23783;DHT22;12071;50.850;4.446;2023-05-29T14:23:27;28.80;99.90
23783;DHT22;12071;50.850;4.446;2023-05-29T14:25:53;28.80;99.90
23783;DHT22;12071;50.850;4.446;2023-05-29T14:28:18;28.60;99.90
23783;DHT22;12071;50.850;4.446;2023-05-29T14:30:44;28.90;99.90
23783;DHT22;12071;50.850;4.446;2023-05-29T14:33:10;28.80;99.90
23783;DHT22;12071;50.850;4.446;2023-05-29T14:35:35;28.90;99.90
23783;DHT22;12071;50.850;4.446;2023-05-29T14:38:01;29.20;99.90
23783;DHT22;12071;50.850;4.446;2023-05-29T14:40:27;29.40;99.90
23783;DHT22;12071;50.850;4.446;2023-05-29T14:42:53;29.30;99.90
23783;DHT22;12071;50.850;4.446;2023-05-29T14:45:19;29.20;99.90
23783;DHT22;12071;50.850;4.446;2023-05-29T14:47:44;28.60;99.90
23783;DHT22;12071;50.850;4.446;2023-05-29T14:50:10;28.60;99.90
23783;DHT22;12071;50.850;4.446;2023-05-29T14:52:37;29.00;99.90
23783;DHT22;12071;50.850;4.446;2023-05-29T14:55:04;29.50;99.90
23783;DHT22;12071;50.850;4.446;2023-05-29T14:57:31;29.50;99.90
23783;DHT22;12071;50.850;4.446;2023-05-29T14:59:59;28.70;99.90
23783;DHT22;12071;50.850;4.446;2023-05-29T15:02:24;28.50;99.90
23783;DHT22;12071;50.850;4.446;2023-05-29T15:04:50;28.60;99.90
23783;DHT22;12071;50.850;4.446;2023-05-29T15:07:16;28.60;99.90
23783;DHT22;12071;50.850;4.446;2023-05-29T15:09:42;28.40;99.90
23783;DHT22;12071;50.850;4.446;2023-05-29T15:12:08;28.20;99.90
23783;DHT22;12071;50.850;4.446;2023-05-29T15:14:34;28.30;99.90
23783;DHT22;12071;50.850;4.446;2023-05-29T15:17:00;28.00;99.90
23783;DHT22;12071;50.850;4.446;2023-05-29T15:19:26;27.60;99.90
23783;DHT22;12071;50.850;4.446;2023-05-29T15:21:51;27.50;99.90
23783;DHT22;12071;50.850;4.446;2023-05-29T15:24:17;27.20;99.90
23783;DHT22;12071;50.850;4.446;2023-05-29T15:26:43;26.70;99.90
23783;DHT22;12071;50.850;4.446;2023-05-29T15:29:09;26.10;99.90
23783;DHT22;12071;50.850;4.446;2023-05-29T15:31:35;26.00;99.90
23783;DHT22;12071;50.850;4.446;2023-05-29T15:34:00;25.80;99.90
23783;DHT22;12071;50.850;4.446;2023-05-29T15:36:26;25.90;99.90
23783;DHT22;12071;50.850;4.446;2023-05-29T15:38:53;26.00;99.90
23783;DHT22;12071;50.850;4.446;2023-05-29T15:41:18;25.60;99.90
23783;DHT22;12071;50.850;4.446;2023-05-29T15:43:44;25.30;99.90
23783;DHT22;12071;50.850;4.446;2023-05-29T15:46:10;24.90;99.90
23783;DHT22;12071;50.850;4.446;2023-05-29T15:48:35;24.90;99.90
23783;DHT22;12071;50.850;4.446;2023-05-29T15:51:01;24.90;99.90
23783;DHT22;12071;50.850;4.446;2023-05-29T15:53:27;25.20;99.90
23783;DHT22;12071;50.850;4.446;2023-05-29T15:55:52;25.00;99.90
23783;DHT22;12071;50.850;4.446;2023-05-29T15:58:18;25.30;99.90
23783;DHT22;12071;50.850;4.446;2023-05-29T16:00:43;25.30;99.90
23783;DHT22;12071;50.850;4.446;2023-05-29T16:03:09;25.40;99.90